createdAt,value
2023-01-03T00:00:04.179Z,102403.53
2023-01-03T00:05:08.509Z,102400.03
2023-01-03T00:10:11.075Z,102403.97
2023-01-03T00:15:16.266Z,102402.25
2023-01-03T00:20:18.161Z,102409.69
2023-01-03T00:25:19.765Z,102411.78
2023-01-03T00:30:21.960Z,102410.16
2023-01-03T00:35:23.600Z,102415.97
2023-01-03T00:40:25.342Z,102414.31
2023-01-03T00:45:29.885Z,102408.09
2023-01-03T00:50:37.663Z,102407.38
2023-01-03T00:55:39.371Z,102409.09
2023-01-03T01:00:41.155Z,102410.63
2023-01-03T01:05:42.861Z,102408.03
2023-01-03T01:11:01.798Z,102413.59
2023-01-03T01:16:14.320Z,102409.34
2023-01-03T01:21:18.695Z,102415.91
2023-01-03T01:26:25.137Z,102426.28
2023-01-03T01:31:27.254Z,102427.28
2023-01-03T01:36:33.033Z,102427.50
2023-01-03T01:41:55.596Z,102435.38
2023-01-03T01:46:57.315Z,102430.03
2023-01-03T01:51:58.984Z,102432.53
2023-01-03T01:57:00.685Z,102443.69
2023-01-03T02:02:02.658Z,102456.19
2023-01-03T02:07:06.491Z,102453.84
2023-01-03T02:12:45.620Z,102455.19
2023-01-03T02:18:13.250Z,102457.16
2023-01-03T02:23:21.389Z,102456.84
2023-01-03T02:28:38.310Z,102458.47
2023-01-03T02:33:57.642Z,102444.94
2023-01-03T02:39:12.889Z,102450.03
2023-01-03T02:44:33.674Z,102448.16
2023-01-03T02:49:42.137Z,102436.56
2023-01-03T02:54:55.805Z,102440.38
2023-01-03T03:00:10.043Z,102429.22
2023-01-03T03:05:17.984Z,102423.91
2023-01-03T03:10:40.394Z,102432.59
2023-01-03T03:16:03.043Z,102432.84
2023-01-03T03:21:27.787Z,102432.13
2023-01-03T03:26:40.072Z,102424.72
2023-01-03T03:31:49.416Z,102418.91
2023-01-03T03:37:05.006Z,102417.16
2023-01-03T03:42:45.784Z,102416.38
2023-01-03T03:48:03.582Z,102412.91
2023-01-03T03:53:08.213Z,102418.09
2023-01-03T03:58:32.586Z,102421.34
2023-01-03T04:03:36.288Z,102431.00
2023-01-03T04:08:38.618Z,102432.25
2023-01-03T04:13:40.588Z,102420.88
2023-01-03T04:18:42.204Z,102426.19
2023-01-03T04:23:43.820Z,102422.94
2023-01-03T04:28:45.491Z,102408.41
2023-01-03T04:33:47.319Z,102427.03
2023-01-03T04:38:48.998Z,102423.13
2023-01-03T04:44:02.631Z,102424.72
2023-01-03T04:49:06.629Z,102428.28
2023-01-03T04:54:08.379Z,102432.91
2023-01-03T04:59:10.067Z,102433.41
2023-01-03T05:04:11.742Z,102425.72
2023-01-03T05:09:13.438Z,102435.84
2023-01-03T05:14:15.198Z,102432.16
2023-01-03T05:19:16.972Z,102429.25
2023-01-03T05:24:59.483Z,102429.66
2023-01-03T05:30:01.442Z,102420.97
2023-01-03T05:35:03.140Z,102414.25
2023-01-03T05:40:05.326Z,102402.81
2023-01-03T05:45:08.298Z,102416.03
2023-01-03T05:50:10.067Z,102414.97
2023-01-03T05:55:11.646Z,102412.91
2023-01-03T06:00:16.727Z,102416.69
2023-01-03T06:05:18.492Z,102408.25
2023-01-03T06:10:20.179Z,102407.16
2023-01-03T06:15:21.964Z,102416.41
2023-01-03T06:20:25.373Z,102407.88
2023-01-03T06:25:27.287Z,102406.66
2023-01-03T06:30:29.041Z,102406.38
2023-01-03T06:35:30.791Z,102398.88
2023-01-03T06:40:39.308Z,102397.38
2023-01-03T06:46:03.483Z,102406.53
2023-01-03T06:51:26.408Z,102410.31
2023-01-03T06:56:28.853Z,102406.28
2023-01-03T07:01:30.617Z,102413.09
2023-01-03T07:06:32.379Z,102409.97
2023-01-03T07:11:34.215Z,102405.66
2023-01-03T07:16:43.930Z,102412.66
2023-01-03T07:21:46.960Z,102392.06
2023-01-03T07:26:48.607Z,102393.31
2023-01-03T07:31:50.338Z,102409.31
2023-01-03T07:36:52.120Z,102407.13
2023-01-03T07:42:12.156Z,102408.75
2023-01-03T07:47:14.447Z,102403.44
2023-01-03T07:52:16.165Z,102391.47
2023-01-03T07:57:20.633Z,102400.22
2023-01-03T08:02:22.553Z,102394.41
2023-01-03T08:07:24.371Z,102394.19
2023-01-03T08:12:44.750Z,102377.63
2023-01-03T08:17:46.604Z,102383.63
2023-01-03T08:22:48.390Z,102384.84
2023-01-03T08:27:50.608Z,102411.03
2023-01-03T08:32:55.112Z,102399.22
2023-01-03T08:37:59.768Z,102377.63
2023-01-03T08:43:04.440Z,102386.91
2023-01-03T08:48:08.164Z,102391.28
2023-01-03T08:53:09.883Z,102395.53
2023-01-03T08:58:11.629Z,102393.16
2023-01-03T09:03:14.055Z,102395.09
2023-01-03T09:08:18.582Z,102407.56
2023-01-03T09:13:20.286Z,102396.09
2023-01-03T09:18:21.897Z,102385.72
2023-01-03T09:23:23.730Z,102383.34
2023-01-03T09:28:26.143Z,102378.78
2023-01-03T09:33:28.288Z,102371.13
2023-01-03T09:38:30.116Z,102356.56
2023-01-03T09:43:42.265Z,102371.66
2023-01-03T09:48:44.520Z,102379.31
2023-01-03T09:54:04.824Z,102386.19
2023-01-03T09:59:37.178Z,102390.56
2023-01-03T10:05:08.789Z,102387.47
2023-01-03T10:10:23.885Z,102395.13
2023-01-03T10:15:42.694Z,102395.38
2023-01-03T10:20:56.917Z,102392.22
2023-01-03T10:25:59.210Z,102399.84
2023-01-03T10:31:28.820Z,102396.78
2023-01-03T10:36:30.496Z,102396.78
2023-01-03T10:41:47.930Z,102396.03
2023-01-03T10:46:53.796Z,102390.97
2023-01-03T10:52:14.605Z,102393.16
2023-01-03T10:57:46.483Z,102378.38
2023-01-03T11:02:50.809Z,102383.38
2023-01-03T11:07:58.809Z,102381.28
2023-01-03T11:13:00.587Z,102372.75
2023-01-03T11:18:05.599Z,102359.38
2023-01-03T11:23:22.437Z,102358.91
2023-01-03T11:28:58.508Z,102355.34
2023-01-03T11:35:03.084Z,102343.22
2023-01-03T11:40:16.774Z,102334.38
2023-01-03T11:45:48.833Z,102326.81
2023-01-03T11:51:03.326Z,102318.91
2023-01-03T11:56:21.697Z,102309.56
2023-01-03T12:01:39.773Z,102300.78
2023-01-03T12:06:44.485Z,102303.78
2023-01-03T12:12:07.733Z,102290.72
2023-01-03T12:17:21.276Z,102289.00
2023-01-03T12:22:40.864Z,102284.88
2023-01-03T12:27:56.673Z,102290.88
2023-01-03T12:33:17.597Z,102290.28
2023-01-03T12:38:27.758Z,102283.56
2023-01-03T12:43:48.589Z,102279.47
2023-01-03T12:49:10.592Z,102276.56
2023-01-03T12:54:34.083Z,102274.34
2023-01-03T13:00:05.192Z,102265.00
2023-01-03T13:05:20.307Z,102254.69
2023-01-03T13:10:32.478Z,102244.09
2023-01-03T13:15:37.370Z,102250.06
2023-01-03T13:20:43.555Z,102245.56
2023-01-03T13:26:06.139Z,102239.72
2023-01-03T13:31:20.954Z,102241.06
2023-01-03T13:36:24.315Z,102230.84
2023-01-03T13:41:35.263Z,102225.63
2023-01-03T13:46:41.710Z,102214.94
2023-01-03T13:51:43.462Z,102214.81
2023-01-03T13:56:45.281Z,102203.97
2023-01-03T14:01:56.791Z,102210.59
2023-01-03T14:07:23.812Z,102201.34
2023-01-03T14:12:56.701Z,102191.00
2023-01-03T14:18:07.252Z,102192.63
2023-01-03T14:23:48.969Z,102197.13
2023-01-03T14:28:34.819Z,102174.69
2023-01-03T14:34:01.018Z,102186.06
2023-01-03T14:39:02.809Z,102172.47
2023-01-03T14:44:16.171Z,102177.44
2023-01-03T14:49:21.441Z,102174.59
2023-01-03T14:54:24.444Z,102163.50
2023-01-03T14:59:27.258Z,102165.50
2023-01-03T15:04:29.012Z,102164.38
2023-01-03T15:09:35.592Z,102160.03
2023-01-03T15:14:39.286Z,102168.13
2023-01-03T15:19:49.966Z,102171.75
2023-01-03T15:25:04.177Z,102156.78
2023-01-03T15:30:25.487Z,102154.06
2023-01-03T15:35:37.616Z,102153.19
2023-01-03T15:40:41.500Z,102152.34
2023-01-03T15:45:44.308Z,102147.34
2023-01-03T15:50:52.077Z,102152.84
2023-01-03T15:56:23.122Z,102140.00
2023-01-03T16:01:27.246Z,102140.75
2023-01-03T16:06:30.024Z,102130.03
2023-01-03T16:11:34.647Z,102127.78
2023-01-03T16:16:43.461Z,102128.03
2023-01-03T16:22:16.043Z,102125.16
2023-01-03T16:27:28.335Z,102134.41
2023-01-03T16:32:36.046Z,102102.50
2023-01-03T16:37:43.566Z,102103.78
2023-01-03T16:42:49.730Z,102107.00
2023-01-03T16:47:52.556Z,102097.16
2023-01-03T16:52:58.690Z,102104.50
2023-01-03T16:58:01.858Z,102095.44
2023-01-03T17:03:07.454Z,102096.53
2023-01-03T17:08:26.470Z,102082.47
2023-01-03T17:14:00.513Z,102091.69
2023-01-03T17:19:05.171Z,102074.50
2023-01-03T17:24:17.997Z,102068.03
2023-01-03T17:29:31.337Z,102057.44
2023-01-03T17:34:36.492Z,102057.44
2023-01-03T17:39:39.086Z,102055.94
2023-01-03T17:45:09.859Z,102051.59
2023-01-03T17:50:12.224Z,102041.63
2023-01-03T17:55:29.112Z,102024.66
2023-01-03T18:00:31.990Z,102029.56
2023-01-03T18:05:37.898Z,102017.59
2023-01-03T18:10:46.479Z,102012.44
2023-01-03T18:15:50.080Z,102004.72
2023-01-03T18:20:52.747Z,101995.75
2023-01-03T18:25:56.780Z,102010.53
2023-01-03T18:30:58.610Z,101993.75
2023-01-03T18:36:00.945Z,102000.44
2023-01-03T18:41:05.900Z,101991.34
2023-01-03T18:46:14.600Z,101993.66
2023-01-03T18:51:18.897Z,101979.97
2023-01-03T18:56:29.515Z,101979.72
2023-01-03T19:01:31.745Z,101960.78
2023-01-03T19:06:34.205Z,101945.38
2023-01-03T19:11:38.050Z,101918.28
2023-01-03T19:16:40.899Z,101918.88
2023-01-03T19:21:47.145Z,101909.63
2023-01-03T19:26:54.113Z,101911.69
2023-01-03T19:31:57.682Z,101901.72
2023-01-03T19:36:59.352Z,101882.53
2023-01-03T19:42:19.467Z,101883.72
2023-01-03T19:47:21.829Z,101881.97
2023-01-03T19:52:24.765Z,101886.31
2023-01-03T19:57:32.267Z,101868.88
2023-01-03T20:02:40.347Z,101857.06
2023-01-03T20:07:50.939Z,101851.56
2023-01-03T20:13:04.272Z,101846.81
2023-01-03T20:18:34.103Z,101837.56
2023-01-03T20:23:46.213Z,101834.09
2023-01-03T20:28:48.267Z,101824.78
2023-01-03T20:33:53.357Z,101815.94
2023-01-03T20:38:56.149Z,101819.97
2023-01-03T20:44:00.611Z,101795.16
2023-01-03T20:49:03.824Z,101790.34
2023-01-03T20:54:05.661Z,101781.38
2023-01-03T20:59:07.500Z,101774.75
2023-01-03T21:04:09.563Z,101752.09
2023-01-03T21:09:11.845Z,101748.50
2023-01-03T21:14:14.772Z,101733.91
2023-01-03T21:19:22.035Z,101731.75
2023-01-03T21:24:24.355Z,101723.97
2023-01-03T21:29:25.980Z,101716.72
2023-01-03T21:34:27.757Z,101703.59
2023-01-03T21:39:30.931Z,101686.56
2023-01-03T21:44:32.563Z,101694.81
2023-01-03T21:49:34.170Z,101688.59
2023-01-03T21:54:35.894Z,101677.34
2023-01-03T21:59:37.971Z,101670.25
2023-01-03T22:04:39.638Z,101660.47
2023-01-03T22:09:59.948Z,101660.59
2023-01-03T22:15:01.628Z,101639.38
2023-01-03T22:20:06.344Z,101629.84
2023-01-03T22:25:10.747Z,101625.78
2023-01-03T22:30:16.684Z,101626.09
2023-01-03T22:35:18.788Z,101625.25
2023-01-03T22:40:20.535Z,101607.38
2023-01-03T22:45:22.171Z,101600.47
2023-01-03T22:50:23.897Z,101581.38
2023-01-03T22:55:31.786Z,101577.34
2023-01-03T23:00:33.814Z,101562.31
2023-01-03T23:05:35.971Z,101559.16
2023-01-03T23:10:37.565Z,101553.41
2023-01-03T23:15:39.238Z,101529.31
2023-01-03T23:20:48.675Z,101531.47
2023-01-03T23:25:50.289Z,101512.72
2023-01-03T23:30:51.995Z,101512.41
2023-01-03T23:35:53.778Z,101489.66
2023-01-03T23:40:55.368Z,101489.38
2023-01-03T23:45:58.014Z,101459.63
2023-01-03T23:51:07.605Z,101447.22
2023-01-03T23:56:12.637Z,101430.91
